createdAt,value
2023-04-08T00:04:11.036Z,4.10
2023-04-08T00:09:32.162Z,3.90
2023-04-08T00:14:54.035Z,4.00
2023-04-08T00:20:15.716Z,4.00
2023-04-08T00:25:37.123Z,4.00
2023-04-08T00:30:58.767Z,4.00
2023-04-08T00:36:20.554Z,4.00
2023-04-08T00:41:42.321Z,4.00
2023-04-08T00:47:04.842Z,4.10
2023-04-08T00:52:26.707Z,4.00
2023-04-08T00:57:48.666Z,4.10
2023-04-08T01:03:24.678Z,4.00
2023-04-08T01:08:51.920Z,4.00
2023-04-08T01:14:18.072Z,4.00
2023-04-08T01:19:45.006Z,4.10
2023-04-08T01:25:11.196Z,4.10
2023-04-08T01:30:34.359Z,4.10
2023-04-08T01:35:57.824Z,4.00
2023-04-08T01:41:21.547Z,4.10
2023-04-08T01:46:44.205Z,4.10
2023-04-08T01:52:06.858Z,4.20
2023-04-08T01:57:31.990Z,4.20
2023-04-08T02:02:55.631Z,4.20
2023-04-08T02:08:16.955Z,4.20
2023-04-08T02:13:38.620Z,4.20
2023-04-08T02:19:20.461Z,4.20
2023-04-08T02:24:43.043Z,4.30
2023-04-08T02:30:07.030Z,4.20
2023-04-08T02:35:31.635Z,4.20
2023-04-08T02:40:53.377Z,4.20
2023-04-08T02:46:15.827Z,4.30
2023-04-08T02:51:37.147Z,4.20
2023-04-08T02:56:58.808Z,4.10
2023-04-08T03:02:20.174Z,4.30
2023-04-08T03:07:41.357Z,4.20
2023-04-08T03:13:03.111Z,4.10
2023-04-08T03:18:24.576Z,4.10
2023-04-08T03:23:46.225Z,4.00
2023-04-08T03:29:07.802Z,3.90
2023-04-08T03:34:29.484Z,3.90
2023-04-08T03:39:51.162Z,3.90
2023-04-08T03:45:12.366Z,3.80
2023-04-08T03:50:33.775Z,4.00
2023-04-08T03:55:56.211Z,4.10
2023-04-08T04:01:17.559Z,4.00
2023-04-08T04:06:39.068Z,4.00
2023-04-08T04:12:00.868Z,4.10
2023-04-08T04:17:22.232Z,4.20
2023-04-08T04:22:43.671Z,4.20
2023-04-08T04:28:05.333Z,4.30
2023-04-08T04:33:27.317Z,4.20
2023-04-08T04:38:50.769Z,4.10
2023-04-08T04:44:12.177Z,4.20
2023-04-08T04:49:33.645Z,4.20
2023-04-08T04:54:55.237Z,4.20
2023-04-08T05:00:17.240Z,4.20
2023-04-08T05:05:39.124Z,4.20
2023-04-08T05:11:02.330Z,4.10
2023-04-08T05:16:23.581Z,4.00
2023-04-08T05:21:45.362Z,4.20
2023-04-08T05:27:07.202Z,4.10
2023-04-08T05:32:29.930Z,4.20
2023-04-08T05:37:51.421Z,4.10
2023-04-08T05:43:12.958Z,4.20
2023-04-08T05:48:34.623Z,4.20
2023-04-08T05:53:56.197Z,4.20
2023-04-08T05:59:17.694Z,4.20
2023-04-08T06:04:39.428Z,4.20
2023-04-08T06:10:00.914Z,4.20
2023-04-08T06:15:22.617Z,4.20
2023-04-08T06:20:44.253Z,4.30
2023-04-08T06:26:05.792Z,4.20
2023-04-08T06:31:27.139Z,4.40
2023-04-08T06:36:48.625Z,4.30
2023-04-08T06:42:10.026Z,4.40
2023-04-08T06:47:48.624Z,4.50
2023-04-08T06:53:10.208Z,4.50
2023-04-08T06:58:31.927Z,4.50
2023-04-08T07:03:53.592Z,4.50
2023-04-08T07:09:15.006Z,4.50
2023-04-08T07:14:36.461Z,4.70
2023-04-08T07:19:57.912Z,4.60
2023-04-08T07:25:19.413Z,4.60
2023-04-08T07:30:40.888Z,4.60
2023-04-08T07:36:02.494Z,4.60
2023-04-08T07:41:23.834Z,4.60
2023-04-08T07:46:51.830Z,4.70
2023-04-08T07:52:13.440Z,4.80
2023-04-08T07:57:34.975Z,4.80
2023-04-08T08:02:57.117Z,5.00
2023-04-08T08:08:18.748Z,5.00
2023-04-08T08:13:39.913Z,5.10
2023-04-08T08:19:01.654Z,5.20
2023-04-08T08:24:23.228Z,5.20
2023-04-08T08:29:44.799Z,5.30
2023-04-08T08:35:06.651Z,5.30
2023-04-08T08:40:27.951Z,5.20
2023-04-08T08:45:49.499Z,5.30
2023-04-08T08:51:12.009Z,5.50
2023-04-08T08:56:36.415Z,5.50
2023-04-08T09:01:58.168Z,5.60
2023-04-08T09:07:24.201Z,5.70
2023-04-08T09:12:56.429Z,5.90
2023-04-08T09:18:24.289Z,6.20
2023-04-08T09:23:51.741Z,6.30
2023-04-08T09:29:25.624Z,6.30
2023-04-08T09:34:47.771Z,6.60
2023-04-08T09:40:09.869Z,6.70
2023-04-08T09:45:33.604Z,6.70
2023-04-08T09:51:00.051Z,6.80
2023-04-08T09:56:21.919Z,6.80
2023-04-08T10:01:52.704Z,6.90
2023-04-08T10:07:15.808Z,7.00
2023-04-08T10:12:37.710Z,7.10
2023-04-08T10:18:19.467Z,7.00
2023-04-08T10:23:59.187Z,7.00
2023-04-08T10:29:38.823Z,6.80
2023-04-08T10:35:00.494Z,6.80
2023-04-08T10:40:22.162Z,6.90
2023-04-08T10:45:47.939Z,7.20
2023-04-08T10:51:10.516Z,7.30
2023-04-08T10:56:32.104Z,7.50
2023-04-08T11:01:53.650Z,7.70
2023-04-08T11:07:16.259Z,8.00
2023-04-08T11:12:38.843Z,8.10
2023-04-08T11:18:02.741Z,8.10
2023-04-08T11:23:26.611Z,8.10
2023-04-08T11:28:52.108Z,8.20
2023-04-08T11:34:22.004Z,7.70
2023-04-08T11:39:46.970Z,7.80
2023-04-08T11:45:12.517Z,7.70
2023-04-08T11:50:34.026Z,7.80
2023-04-08T11:55:56.098Z,7.80
2023-04-08T12:01:17.755Z,7.80
2023-04-08T12:06:39.195Z,7.80
2023-04-08T12:12:01.422Z,7.80
2023-04-08T12:17:22.801Z,8.10
2023-04-08T12:22:44.407Z,8.10
2023-04-08T12:28:05.934Z,8.10
2023-04-08T12:33:27.506Z,8.10
2023-04-08T12:38:49.105Z,8.30
2023-04-08T12:44:11.001Z,8.30
2023-04-08T12:49:39.662Z,8.40
2023-04-08T12:55:10.749Z,8.40
2023-04-08T13:00:32.520Z,8.50
2023-04-08T13:05:54.030Z,8.50
2023-04-08T13:11:15.739Z,8.40
2023-04-08T13:16:37.377Z,8.40
2023-04-08T13:21:58.600Z,8.40
2023-04-08T13:27:19.829Z,8.40
2023-04-08T13:32:41.320Z,8.30
2023-04-08T13:38:02.590Z,8.20
2023-04-08T13:43:23.912Z,8.00
2023-04-08T13:48:46.494Z,7.90
2023-04-08T13:54:08.220Z,7.80
2023-04-08T13:59:29.439Z,7.80
2023-04-08T14:04:52.441Z,7.90
2023-04-08T14:10:15.865Z,7.80
2023-04-08T14:15:37.296Z,8.00
2023-04-08T14:20:58.703Z,8.10
2023-04-08T14:26:20.233Z,7.80
2023-04-08T14:31:41.662Z,7.80
2023-04-08T14:37:03.288Z,7.70
2023-04-08T14:42:24.984Z,7.50
2023-04-08T14:47:47.715Z,7.30
2023-04-08T14:53:09.096Z,7.40
2023-04-08T14:58:30.661Z,7.50
2023-04-08T15:03:51.977Z,7.50
2023-04-08T15:09:13.388Z,7.50
2023-04-08T15:14:34.999Z,7.50
2023-04-08T15:19:56.732Z,7.40
2023-04-08T15:25:18.565Z,7.30
2023-04-08T15:30:39.936Z,7.30
2023-04-08T15:36:04.166Z,7.40
2023-04-08T15:41:26.363Z,7.30
2023-04-08T15:46:47.909Z,7.30
2023-04-08T15:52:09.594Z,7.20
2023-04-08T15:57:32.348Z,7.10
2023-04-08T16:02:53.987Z,7.10
2023-04-08T16:08:16.366Z,7.10
2023-04-08T16:13:39.293Z,7.00
2023-04-08T16:19:02.345Z,6.90
2023-04-08T16:24:23.696Z,6.90
2023-04-08T16:29:46.207Z,6.80
2023-04-08T16:35:07.855Z,6.90
2023-04-08T16:40:33.158Z,7.00
2023-04-08T16:45:54.595Z,7.00
2023-04-08T16:51:17.692Z,6.80
2023-04-08T16:56:44.341Z,6.90
2023-04-08T17:02:05.650Z,6.90
2023-04-08T17:07:28.476Z,6.90
2023-04-08T17:12:49.911Z,6.80
2023-04-08T17:18:11.462Z,6.90
2023-04-08T17:23:33.299Z,6.90
2023-04-08T17:28:54.718Z,6.90
2023-04-08T17:34:16.438Z,6.90
2023-04-08T17:39:40.918Z,6.90
2023-04-08T17:45:02.883Z,6.80
2023-04-08T17:50:24.858Z,6.70
2023-04-08T17:55:46.295Z,6.60
2023-04-08T18:01:07.645Z,6.40
2023-04-08T18:06:29.712Z,6.30
2023-04-08T18:11:51.811Z,6.30
2023-04-08T18:17:14.576Z,6.20
2023-04-08T18:22:36.390Z,6.20
2023-04-08T18:27:58.377Z,6.00
2023-04-08T18:33:20.183Z,6.10
2023-04-08T18:38:42.040Z,6.10
2023-04-08T18:44:04.254Z,6.10
2023-04-08T18:49:25.554Z,6.10
2023-04-08T18:54:48.999Z,6.10
2023-04-08T19:00:11.088Z,6.00
2023-04-08T19:05:33.104Z,6.00
2023-04-08T19:10:54.578Z,6.00
2023-04-08T19:16:16.091Z,5.80
2023-04-08T19:21:37.981Z,5.90
2023-04-08T19:26:59.158Z,5.90
2023-04-08T19:32:20.571Z,5.90
2023-04-08T19:37:42.124Z,5.80
2023-04-08T19:43:03.645Z,5.80
2023-04-08T19:48:26.165Z,5.80
2023-04-08T19:53:47.617Z,5.80
2023-04-08T19:59:08.783Z,5.80
2023-04-08T20:04:31.128Z,5.80
2023-04-08T20:09:53.010Z,5.70
2023-04-08T20:15:24.073Z,5.70
2023-04-08T20:20:49.000Z,5.70
2023-04-08T20:26:11.684Z,5.60
2023-04-08T20:31:33.311Z,5.40
2023-04-08T20:36:54.843Z,5.20
2023-04-08T20:42:16.363Z,5.20
2023-04-08T20:47:38.913Z,5.00
2023-04-08T20:53:00.806Z,4.80
2023-04-08T20:58:22.407Z,4.70
2023-04-08T21:03:44.612Z,4.60
2023-04-08T21:09:06.410Z,4.40
2023-04-08T21:14:27.939Z,4.20
2023-04-08T21:19:49.176Z,4.10
2023-04-08T21:25:11.035Z,3.90
2023-04-08T21:30:33.869Z,3.70
2023-04-08T21:35:57.106Z,3.60
2023-04-08T21:41:18.271Z,3.40
2023-04-08T21:46:39.839Z,3.30
2023-04-08T21:52:03.277Z,3.10
2023-04-08T21:57:24.828Z,3.00
2023-04-08T22:02:46.382Z,2.80
2023-04-08T22:08:08.218Z,2.70
2023-04-08T22:13:29.932Z,2.50
2023-04-08T22:18:51.853Z,2.30
2023-04-08T22:24:13.578Z,2.20
2023-04-08T22:29:35.350Z,2.10
2023-04-08T22:34:57.042Z,1.90
2023-04-08T22:40:18.556Z,1.80
2023-04-08T22:45:40.435Z,1.70
2023-04-08T22:51:02.196Z,1.60
2023-04-08T22:56:24.092Z,1.50
2023-04-08T23:01:45.787Z,1.40
2023-04-08T23:07:06.985Z,1.30
2023-04-08T23:12:28.367Z,1.20
2023-04-08T23:17:49.804Z,1.10
2023-04-08T23:23:11.345Z,1.00
2023-04-08T23:28:32.428Z,0.90
2023-04-08T23:33:54.042Z,0.90
2023-04-08T23:39:15.796Z,0.80
2023-04-08T23:44:37.323Z,0.70
2023-04-08T23:49:58.865Z,0.60
2023-04-08T23:55:20.246Z,0.50
